Time;durP1;ratioP1;P1;durP2;ratioP2;P2;SDS_P1;SDS_P2;PMS_P1;PMS_P2;Temp;Humidity;BMP_temperature;BMP_pressure;BME280_temperature;BME280_humidity;BME280_pressure;Samples;Min_cycle;Max_cycle;Signal;HPM_P1;HPM_P2
2023/04/26 00:00:44;;;;;;;1.03;0.93;;;18.20;55.00;;;;;;5089533;28;20208;-47
2023/04/26 00:03:16;;;;;;;1.17;0.77;;;18.20;55.00;;;;;;5067889;28;20237;-47
2023/04/26 00:05:50;;;;;;;1.73;1.00;;;18.20;55.00;;;;;;5088415;28;20219;-47
2023/04/26 00:08:19;;;;;;;2.37;1.30;;;18.20;55.10;;;;;;5086303;28;20592;-47
2023/04/26 00:10:47;;;;;;;1.17;1.00;;;18.20;55.10;;;;;;5089528;28;20188;-47
2023/04/26 00:13:18;;;;;;;1.37;1.07;;;18.20;55.00;;;;;;5086687;28;20669;-46
2023/04/26 00:15:51;;;;;;;2.37;1.20;;;18.10;55.00;;;;;;5089751;28;20201;-47
2023/04/26 00:18:20;;;;;;;1.47;1.07;;;18.20;55.00;;;;;;5080786;28;20212;-47
2023/04/26 00:20:52;;;;;;;1.37;1.10;;;18.20;55.00;;;;;;5086305;28;20209;-47
2023/04/26 00:23:25;;;;;;;1.33;1.00;;;18.20;55.00;;;;;;5081472;28;20200;-47
2023/04/26 00:25:56;;;;;;;1.33;0.90;;;18.10;55.00;;;;;;5081033;28;20217;-47
2023/04/26 00:28:25;;;;;;;1.93;1.30;;;18.10;55.00;;;;;;5076189;28;20669;-47
2023/04/26 00:30:57;;;;;;;1.37;1.17;;;18.10;54.90;;;;;;5091831;28;20180;-47
2023/04/26 00:33:27;;;;;;;1.90;1.10;;;18.10;54.90;;;;;;5095518;28;20200;-47
2023/04/26 00:35:58;;;;;;;2.03;1.27;;;18.10;55.00;;;;;;5099287;28;20197;-47
2023/04/26 00:38:30;;;;;;;3.60;1.60;;;18.10;55.50;;;;;;5088397;28;20867;-47
2023/04/26 00:41:01;;;;;;;2.00;1.10;;;18.10;54.90;;;;;;5086236;28;20622;-46
2023/04/26 00:43:32;;;;;;;1.43;1.07;;;18.10;54.90;;;;;;5066974;28;20243;-47
2023/04/26 00:45:59;;;;;;;1.67;1.27;;;18.10;54.90;;;;;;5079812;28;20233;-47
2023/04/26 00:48:29;;;;;;;1.50;1.00;;;18.10;54.90;;;;;;5070714;28;20243;-47
2023/04/26 00:50:57;;;;;;;2.20;1.10;;;18.10;54.90;;;;;;5066832;28;20247;-46
2023/04/26 00:53:29;;;;;;;1.73;1.00;;;18.10;54.90;;;;;;5071713;28;20285;-47
2023/04/26 00:55:59;;;;;;;1.83;1.07;;;18.10;55.00;;;;;;5070817;28;20582;-47
2023/04/26 00:58:31;;;;;;;1.67;1.33;;;18.00;54.90;;;;;;5071411;28;20193;-47
2023/04/26 01:01:01;;;;;;;1.37;1.03;;;18.00;54.90;;;;;;5071831;28;20353;-47
2023/04/26 01:03:33;;;;;;;1.77;1.10;;;18.00;55.00;;;;;;5097284;28;20204;-47
2023/04/26 01:06:03;;;;;;;2.20;1.00;;;18.00;55.10;;;;;;5082649;28;20289;-46
2023/04/26 01:08:35;;;;;;;2.30;1.43;;;18.00;55.00;;;;;;5066897;28;20629;-47
2023/04/26 01:11:07;;;;;;;1.50;1.10;;;18.00;55.00;;;;;;5086234;28;20192;-47
2023/04/26 01:13:37;;;;;;;1.00;0.90;;;18.00;55.60;;;;;;5103525;28;20192;-47
2023/04/26 01:16:08;;;;;;;1.80;1.40;;;18.00;55.00;;;;;;5083435;28;20211;-47
2023/04/26 01:18:40;;;;;;;1.30;1.20;;;18.00;55.00;;;;;;5070445;28;20201;-46
2023/04/26 01:21:18;;;;;;;1.40;1.07;;;18.00;54.90;;;;;;5078100;28;20216;-47
2023/04/26 01:23:50;;;;;;;1.50;1.00;;;18.00;54.90;;;;;;5073700;28;20196;-47
2023/04/26 01:26:24;;;;;;;1.43;1.07;;;18.00;54.90;;;;;;5063190;28;20559;-46
2023/04/26 01:28:53;;;;;;;2.37;1.50;;;18.00;55.00;;;;;;5089076;28;20194;-46
2023/04/26 01:31:25;;;;;;;1.93;1.20;;;17.90;54.90;;;;;;5095899;28;20738;-47
2023/04/26 01:33:55;;;;;;;1.77;1.07;;;18.00;54.90;;;;;;5100822;28;20261;-46
2023/04/26 01:36:38;;;;;;;2.13;1.00;;;18.00;54.90;;;;;;5105689;28;20260;-47
2023/04/26 01:39:11;;;;;;;2.50;1.20;;;18.00;54.90;;;;;;5073199;28;20224;-47
2023/04/26 01:41:40;;;;;;;3.17;1.30;;;17.90;54.90;;;;;;5096460;28;20197;-46
2023/04/26 01:44:10;;;;;;;2.93;1.00;;;17.90;54.90;;;;;;5093964;28;20764;-46
2023/04/26 01:46:40;;;;;;;1.40;1.20;;;17.90;54.90;;;;;;5077073;28;20228;-46
2023/04/26 01:49:10;;;;;;;1.60;1.20;;;17.90;54.90;;;;;;5085227;28;20232;-46
2023/04/26 01:51:40;;;;;;;1.23;0.90;;;17.90;54.90;;;;;;5087760;28;20583;-46
2023/04/26 01:54:10;;;;;;;1.57;1.10;;;17.90;54.90;;;;;;5086941;28;20676;-46
2023/04/26 01:56:40;;;;;;;1.87;1.53;;;17.90;54.90;;;;;;5084267;28;20201;-46
2023/04/26 01:59:11;;;;;;;1.30;1.20;;;17.90;54.90;;;;;;5087020;28;20197;-46
2023/04/26 02:01:45;;;;;;;2.13;1.30;;;17.90;54.90;;;;;;5081173;28;20554;-46
2023/04/26 02:04:15;;;;;;;2.43;1.50;;;17.90;54.90;;;;;;5071426;28;20605;-46
2023/04/26 02:06:43;;;;;;;2.03;1.37;;;17.90;54.80;;;;;;5087761;28;20204;-46
2023/04/26 02:09:13;;;;;;;1.73;1.27;;;17.90;54.90;;;;;;5082436;28;20192;-46
2023/04/26 02:11:43;;;;;;;2.33;1.10;;;17.90;54.90;;;;;;5088749;28;20203;-46
2023/04/26 02:14:14;;;;;;;2.23;1.20;;;17.90;54.90;;;;;;5089636;28;20630;-46
2023/04/26 02:16:45;;;;;;;1.40;1.10;;;17.90;54.80;;;;;;5087392;28;20803;-46
2023/04/26 02:19:17;;;;;;;2.80;1.40;;;17.80;54.80;;;;;;5074416;28;20287;-46
2023/04/26 02:21:57;;;;;;;2.17;1.20;;;17.80;54.80;;;;;;5086881;28;20299;-46
2023/04/26 02:24:37;;;;;;;3.10;1.30;;;17.80;54.80;;;;;;5092638;28;20200;-48
2023/04/26 02:27:07;;;;;;;1.80;1.30;;;17.80;54.80;;;;;;5080374;28;20240;-47
2023/04/26 02:29:40;;;;;;;2.30;1.27;;;17.80;54.80;;;;;;5096848;28;20204;-47
2023/04/26 02:32:13;;;;;;;5.00;1.50;;;17.80;54.80;;;;;;5069510;28;20205;-48
2023/04/26 02:34:44;;;;;;;2.17;1.43;;;17.80;54.80;;;;;;5071063;28;20204;-47
2023/04/26 02:37:15;;;;;;;2.33;1.40;;;17.80;54.80;;;;;;5089403;28;20254;-47
2023/04/26 02:39:51;;;;;;;1.73;1.20;;;17.80;54.80;;;;;;5101795;28;20201;-47
2023/04/26 02:42:26;;;;;;;1.87;1.10;;;17.80;54.90;;;;;;5106080;28;20196;-45
2023/04/26 02:44:55;;;;;;;1.70;1.20;;;17.80;54.80;;;;;;5098515;28;20242;-47
2023/04/26 02:47:24;;;;;;;1.80;1.20;;;17.70;54.80;;;;;;5088085;28;20193;-47
2023/04/26 02:49:55;;;;;;;3.00;1.40;;;17.80;54.90;;;;;;5083520;28;20188;-47
2023/04/26 02:52:25;;;;;;;2.37;1.30;;;17.70;54.80;;;;;;5099347;28;20200;-47
2023/04/26 02:54:54;;;;;;;1.90;1.00;;;17.70;54.80;;;;;;5092607;28;20193;-47
2023/04/26 02:57:25;;;;;;;3.27;1.87;;;17.70;54.90;;;;;;5087714;28;20661;-47
2023/04/26 02:59:56;;;;;;;4.73;1.53;;;17.70;54.80;;;;;;5054895;28;20619;-47
2023/04/26 03:02:26;;;;;;;2.57;1.20;;;17.70;54.80;;;;;;5095764;28;20207;-47
2023/04/26 03:04:56;;;;;;;2.70;1.20;;;17.70;54.80;;;;;;5107122;28;20199;-47
2023/04/26 03:07:25;;;;;;;2.10;1.03;;;17.70;54.80;;;;;;5082551;28;20323;-47
2023/04/26 03:09:53;;;;;;;1.63;1.10;;;17.70;54.80;;;;;;5092307;28;20197;-47
2023/04/26 03:12:25;;;;;;;1.70;1.40;;;17.70;54.80;;;;;;5087382;28;20197;-47
2023/04/26 03:14:55;;;;;;;1.90;1.20;;;17.70;54.80;;;;;;5094781;28;20280;-47
2023/04/26 03:17:24;;;;;;;1.90;1.17;;;17.60;54.70;;;;;;5094987;28;20273;-47
2023/04/26 03:19:56;;;;;;;1.60;1.10;;;17.70;54.80;;;;;;5107648;28;20239;-47
2023/04/26 03:22:25;;;;;;;1.90;1.27;;;17.70;54.90;;;;;;5102269;28;20215;-47
2023/04/26 03:25:02;;;;;;;2.07;1.30;;;17.60;54.80;;;;;;5101646;28;20188;-47
2023/04/26 03:27:31;;;;;;;1.33;1.07;;;17.70;54.80;;;;;;5093131;28;20209;-46
2023/04/26 03:30:02;;;;;;;2.17;1.03;;;17.60;54.80;;;;;;5086349;28;20273;-47
2023/04/26 03:32:33;;;;;;;3.63;1.30;;;17.70;54.80;;;;;;5089072;28;20209;-47
2023/04/26 03:35:04;;;;;;;1.60;1.30;;;17.60;54.80;;;;;;5092020;28;20288;-47
2023/04/26 03:37:38;;;;;;;1.87;1.27;;;17.60;54.70;;;;;;5093330;28;20232;-47
2023/04/26 03:40:10;;;;;;;1.67;1.40;;;17.60;54.70;;;;;;5104684;28;20766;-47
2023/04/26 03:42:41;;;;;;;2.17;1.33;;;17.60;54.70;;;;;;5106975;28;20243;-48
2023/04/26 03:45:10;;;;;;;2.10;1.33;;;17.60;54.80;;;;;;5084461;28;20232;-47
2023/04/26 03:47:38;;;;;;;3.20;1.63;;;17.60;54.70;;;;;;5090375;28;20193;-47
2023/04/26 03:50:09;;;;;;;2.57;1.43;;;17.60;54.70;;;;;;5103123;28;20192;-47
2023/04/26 03:52:43;;;;;;;1.47;1.37;;;17.60;54.80;;;;;;5093034;28;20192;-47
2023/04/26 03:55:12;;;;;;;1.37;1.20;;;17.60;54.80;;;;;;5095606;27;20185;-47
2023/04/26 03:57:42;;;;;;;1.20;1.10;;;17.60;54.80;;;;;;5109799;28;20649;-47
2023/04/26 04:00:12;;;;;;;3.03;1.60;;;17.60;54.70;;;;;;5098015;28;20192;-47
2023/04/26 04:02:42;;;;;;;2.17;1.00;;;17.60;54.70;;;;;;5099495;28;20526;-47
2023/04/26 04:05:19;;;;;;;1.83;1.30;;;17.50;54.70;;;;;;5087419;28;20185;-47
2023/04/26 04:07:51;;;;;;;1.37;1.27;;;17.50;54.70;;;;;;5088143;28;20658;-47
2023/04/26 04:10:22;;;;;;;2.50;1.30;;;17.60;54.70;;;;;;5095198;28;20704;-46
2023/04/26 04:12:52;;;;;;;1.87;1.20;;;17.60;54.70;;;;;;5093189;28;20197;-47
2023/04/26 04:15:24;;;;;;;2.13;1.47;;;17.60;54.70;;;;;;5090963;28;20521;-47
2023/04/26 04:17:54;;;;;;;1.73;1.33;;;17.60;54.70;;;;;;5072447;28;20193;-47
2023/04/26 04:20:24;;;;;;;1.20;1.10;;;17.50;54.70;;;;;;5094001;28;20553;-47
2023/04/26 04:22:53;;;;;;;1.53;1.23;;;17.50;54.70;;;;;;5103461;28;20582;-46
2023/04/26 04:25:23;;;;;;;1.60;1.10;;;17.50;54.70;;;;;;5088668;28;20662;-47
2023/04/26 04:27:57;;;;;;;1.83;1.43;;;17.50;54.70;;;;;;5082241;28;20814;-47
2023/04/26 04:30:28;;;;;;;3.60;1.60;;;17.50;54.60;;;;;;5087573;28;20194;-46
2023/04/26 04:32:58;;;;;;;2.20;1.13;;;17.50;54.60;;;;;;5068626;28;20217;-47
2023/04/26 04:35:34;;;;;;;2.37;1.30;;;17.50;54.60;;;;;;5072182;28;20567;-47
2023/04/26 04:38:17;;;;;;;2.20;1.27;;;17.50;54.60;;;;;;5083560;28;20232;-47
2023/04/26 04:40:48;;;;;;;2.60;1.67;;;17.50;54.70;;;;;;5078978;28;20505;-47
2023/04/26 04:43:22;;;;;;;3.00;1.20;;;17.50;54.70;;;;;;5091824;27;20186;-47
2023/04/26 04:45:54;;;;;;;2.67;1.40;;;17.50;54.70;;;;;;5097103;28;20232;-47
2023/04/26 04:48:25;;;;;;;2.43;1.13;;;17.50;54.70;;;;;;5090389;28;20200;-47
2023/04/26 04:50:57;;;;;;;2.90;1.63;;;17.50;54.60;;;;;;5103366;28;20295;-47
2023/04/26 04:53:28;;;;;;;1.93;1.30;;;17.50;54.60;;;;;;5093481;28;20188;-47
2023/04/26 04:55:59;;;;;;;1.43;1.20;;;17.40;54.60;;;;;;5092372;28;20213;-46
2023/04/26 04:58:30;;;;;;;2.87;1.43;;;17.40;54.60;;;;;;5087972;28;20200;-47
2023/04/26 05:01:01;;;;;;;2.63;1.67;;;17.50;54.60;;;;;;5103899;28;20196;-46
2023/04/26 05:03:32;;;;;;;2.47;1.63;;;17.50;54.60;;;;;;5102032;28;20289;-47
2023/04/26 05:06:02;;;;;;;2.20;1.63;;;17.40;54.50;;;;;;5078628;28;20547;-46
2023/04/26 05:08:32;;;;;;;1.60;1.40;;;17.40;54.50;;;;;;5096429;28;20208;-47
2023/04/26 05:11:02;;;;;;;1.80;1.57;;;17.40;54.50;;;;;;5073812;28;20203;-47
2023/04/26 05:13:32;;;;;;;3.53;1.60;;;17.40;54.50;;;;;;5079875;28;20201;-47
2023/04/26 05:16:03;;;;;;;2.07;1.40;;;17.40;54.50;;;;;;5083632;28;20625;-46
2023/04/26 05:18:35;;;;;;;2.80;1.60;;;17.40;54.60;;;;;;5092076;28;20209;-46
2023/04/26 05:21:06;;;;;;;2.67;1.60;;;17.40;54.90;;;;;;5096719;28;20265;-46
2023/04/26 05:23:38;;;;;;;1.60;1.47;;;17.40;55.00;;;;;;5070436;28;20189;-46
2023/04/26 05:26:15;;;;;;;2.57;1.40;;;17.40;55.00;;;;;;5098775;28;20586;-46
2023/04/26 05:28:48;;;;;;;2.10;2.00;;;17.50;55.00;;;;;;5055942;28;20200;-46
2023/04/26 05:31:17;;;;;;;4.30;1.80;;;17.40;54.90;;;;;;5079385;28;20677;-46
2023/04/26 05:33:48;;;;;;;5.17;1.63;;;17.50;54.90;;;;;;5090541;28;20191;-46
2023/04/26 05:36:17;;;;;;;3.00;2.00;;;17.50;54.80;;;;;;5105044;28;20933;-46
2023/04/26 05:38:44;;;;;;;4.33;1.93;;;17.50;54.70;;;;;;5071619;28;20269;-46
2023/04/26 05:41:12;;;;;;;3.13;2.00;;;17.50;54.70;;;;;;5048249;28;20523;-46
2023/04/26 05:43:43;;;;;;;6.43;2.23;;;17.60;54.80;;;;;;5052814;28;20207;-46
2023/04/26 05:46:14;;;;;;;2.60;1.97;;;17.60;54.70;;;;;;5046919;28;20248;-46
2023/04/26 05:48:46;;;;;;;1.90;1.63;;;17.70;54.50;;;;;;5054204;28;20190;-46
2023/04/26 05:51:19;;;;;;;2.60;1.80;;;17.70;54.30;;;;;;5047994;28;20209;-46
2023/04/26 05:53:49;;;;;;;5.80;2.03;;;17.70;54.20;;;;;;5034788;28;20588;-46
2023/04/26 05:56:18;;;;;;;2.40;1.83;;;17.70;54.10;;;;;;5046350;28;20218;-47
2023/04/26 05:58:49;;;;;;;2.83;2.10;;;17.60;54.00;;;;;;5048762;28;20212;-46
2023/04/26 06:01:19;;;;;;;6.60;1.90;;;17.60;54.00;;;;;;5046011;28;20240;-46
2023/04/26 06:04:03;;;;;;;2.90;1.87;;;17.60;54.10;;;;;;5040970;28;20230;-47
2023/04/26 06:06:35;;;;;;;4.43;2.10;;;17.50;54.10;;;;;;5048079;28;20222;-46
2023/04/26 06:09:06;;;;;;;3.53;1.97;;;17.50;54.10;;;;;;5040817;28;20529;-46
2023/04/26 06:11:37;;;;;;;6.73;2.17;;;17.50;54.10;;;;;;5049244;28;20510;-50
2023/04/26 06:14:08;;;;;;;3.47;1.90;;;17.50;54.20;;;;;;5050165;28;20536;-46
2023/04/26 06:16:56;;;;;;;5.23;2.63;;;17.40;54.20;;;;;;5055528;28;20619;-46
2023/04/26 06:19:25;;;;;;;4.00;1.90;;;17.40;54.20;;;;;;5051355;28;20225;-46
2023/04/26 06:21:55;;;;;;;4.23;1.57;;;17.40;54.20;;;;;;5060794;28;20631;-46
2023/04/26 06:24:25;;;;;;;3.43;1.83;;;17.40;54.30;;;;;;5057924;28;20206;-46
2023/04/26 06:26:54;;;;;;;5.40;2.50;;;17.30;54.30;;;;;;5028263;28;20523;-47
2023/04/26 06:29:25;;;;;;;3.63;2.07;;;17.30;54.30;;;;;;5052285;28;20202;-46
2023/04/26 06:31:56;;;;;;;3.93;2.13;;;17.30;54.30;;;;;;5049018;28;20210;-46
2023/04/26 06:34:29;;;;;;;3.37;2.23;;;17.30;54.50;;;;;;5054886;28;20725;-46
2023/04/26 06:37:25;;;;;;;8.93;2.87;;;17.30;55.20;;;;;;5044892;28;20198;-46
2023/04/26 06:39:58;;;;;;;20.60;3.77;;;17.40;56.60;;;;;;5073304;28;20582;-46
2023/04/26 06:42:28;;;;;;;9.30;3.83;;;17.30;56.90;;;;;;5058091;28;20186;-46
2023/04/26 06:45:00;;;;;;;12.80;3.50;;;17.30;56.60;;;;;;5073159;28;20206;-46
2023/04/26 06:47:28;;;;;;;10.37;3.33;;;17.30;56.50;;;;;;5079386;28;20270;-46
2023/04/26 06:49:59;;;;;;;9.70;3.57;;;17.30;56.20;;;;;;5084875;28;20189;-46
2023/04/26 06:52:33;;;;;;;8.87;3.30;;;17.30;56.10;;;;;;5074068;28;20201;-46
2023/04/26 06:55:03;;;;;;;7.37;3.20;;;17.30;56.00;;;;;;5068993;28;20193;-46
2023/04/26 06:57:33;;;;;;;7.97;2.80;;;17.20;55.90;;;;;;5072006;28;20213;-46
2023/04/26 07:00:01;;;;;;;8.57;3.30;;;17.30;55.90;;;;;;5071698;28;20206;-46
2023/04/26 07:02:31;;;;;;;5.70;2.90;;;17.20;55.70;;;;;;5042791;28;20190;-46
2023/04/26 07:05:00;;;;;;;5.90;2.40;;;17.20;55.70;;;;;;5072872;28;20518;-46
2023/04/26 07:07:30;;;;;;;9.07;2.40;;;17.20;55.60;;;;;;5073540;28;20244;-46
2023/04/26 07:10:02;;;;;;;4.60;2.23;;;17.20;55.50;;;;;;5071348;28;20209;-46
2023/04/26 07:12:34;;;;;;;6.90;3.00;;;17.20;55.50;;;;;;5073103;28;20247;-46
2023/04/26 07:15:06;;;;;;;5.67;2.30;;;17.20;55.50;;;;;;5070839;28;20209;-46
2023/04/26 07:17:38;;;;;;;11.13;2.47;;;17.20;55.50;;;;;;5076376;28;20197;-46
2023/04/26 07:20:09;;;;;;;5.77;2.57;;;17.20;55.80;;;;;;5080556;28;20205;-46
2023/04/26 07:22:40;;;;;;;4.73;2.80;;;17.20;55.50;;;;;;5086736;28;20209;-46
2023/04/26 07:25:09;;;;;;;5.17;2.20;;;17.20;55.40;;;;;;5067824;28;20243;-46
2023/04/26 07:27:40;;;;;;;4.93;2.30;;;17.20;55.50;;;;;;5073435;28;20219;-46
2023/04/26 07:30:09;;;;;;;4.20;2.13;;;17.10;55.40;;;;;;5076355;28;20193;-46
2023/04/26 07:32:38;;;;;;;3.97;1.93;;;17.20;55.40;;;;;;5071930;28;20203;-46
2023/04/26 07:35:14;;;;;;;4.87;2.07;;;17.20;55.40;;;;;;5078488;28;20227;-46
2023/04/26 07:37:49;;;;;;;5.57;2.57;;;17.20;55.30;;;;;;5068735;28;20580;-46
2023/04/26 07:40:21;;;;;;;3.07;2.00;;;17.20;55.30;;;;;;5071746;28;20210;-46
2023/04/26 07:42:54;;;;;;;4.13;1.97;;;17.20;55.30;;;;;;5071350;28;20205;-46
2023/04/26 07:45:25;;;;;;;6.97;2.23;;;17.20;55.20;;;;;;5057709;28;20217;-47
2023/04/26 07:47:57;;;;;;;4.67;2.47;;;17.20;55.20;;;;;;5070439;28;20618;-46
2023/04/26 07:50:27;;;;;;;4.80;2.20;;;17.20;55.20;;;;;;5075643;28;20194;-46
2023/04/26 07:52:59;;;;;;;3.40;2.17;;;17.20;55.20;;;;;;5071002;28;20204;-46
2023/04/26 07:55:30;;;;;;;3.00;1.70;;;17.20;55.20;;;;;;5049606;28;20271;-46
2023/04/26 07:57:58;;;;;;;3.07;1.70;;;17.20;55.10;;;;;;5072296;28;20563;-46
2023/04/26 08:00:29;;;;;;;2.47;1.67;;;17.20;55.10;;;;;;5076116;28;20201;-46
2023/04/26 08:02:56;;;;;;;4.70;2.00;;;17.20;55.10;;;;;;5071497;28;20189;-46
2023/04/26 08:05:31;;;;;;;3.47;1.93;;;17.20;55.00;;;;;;5047046;28;20199;-46
2023/04/26 08:08:00;;;;;;;4.63;2.07;;;17.20;55.20;;;;;;5058647;28;20256;-46
2023/04/26 08:10:31;;;;;;;4.23;2.30;;;17.20;55.20;;;;;;5053187;28;20208;-46
2023/04/26 08:13:02;;;;;;;3.00;2.03;;;17.20;55.10;;;;;;5068376;28;20218;-46
2023/04/26 08:15:34;;;;;;;5.10;2.17;;;17.20;55.10;;;;;;5062149;28;20206;-46
2023/04/26 08:18:05;;;;;;;4.17;2.57;;;17.20;55.10;;;;;;5071142;28;20204;-46
2023/04/26 08:20:39;;;;;;;3.47;1.80;;;17.20;55.10;;;;;;5068016;28;20383;-46
2023/04/26 08:23:11;;;;;;;2.50;1.70;;;17.20;55.10;;;;;;5068961;28;20205;-46
2023/04/26 08:25:44;;;;;;;6.17;2.57;;;17.20;55.00;;;;;;5070436;28;20201;-46
2023/04/26 08:28:15;;;;;;;3.17;2.00;;;17.20;55.00;;;;;;5059649;28;20229;-47
2023/04/26 08:30:45;;;;;;;3.00;1.80;;;17.20;55.00;;;;;;5055864;28;20661;-46
2023/04/26 08:33:18;;;;;;;4.67;1.93;;;17.20;55.00;;;;;;5046913;28;20197;-46
2023/04/26 08:35:48;;;;;;;2.87;2.10;;;17.30;55.00;;;;;;5061265;28;20259;-46
2023/04/26 08:38:17;;;;;;;5.07;1.70;;;17.20;55.00;;;;;;5060274;28;20242;-46
2023/04/26 08:40:47;;;;;;;3.60;2.10;;;17.30;55.10;;;;;;5065821;28;20198;-46
2023/04/26 08:43:18;;;;;;;3.50;2.40;;;17.20;55.00;;;;;;5067927;28;20231;-47
2023/04/26 08:45:52;;;;;;;3.53;1.77;;;17.20;55.00;;;;;;5074867;28;20274;-46
2023/04/26 08:48:20;;;;;;;2.37;1.80;;;17.20;54.90;;;;;;5063257;28;20221;-46
2023/04/26 08:50:52;;;;;;;3.73;1.93;;;17.20;54.90;;;;;;5070099;28;20689;-46
2023/04/26 08:53:20;;;;;;;3.23;1.73;;;17.20;54.90;;;;;;5049701;28;20663;-46
2023/04/26 08:55:49;;;;;;;2.93;1.80;;;17.30;54.90;;;;;;5059630;28;20623;-47
2023/04/26 08:58:26;;;;;;;3.80;1.57;;;17.30;54.90;;;;;;5051975;28;20205;-46
2023/04/26 09:00:55;;;;;;;2.77;1.60;;;17.30;55.00;;;;;;5066566;28;20197;-46
2023/04/26 09:03:25;;;;;;;2.30;1.50;;;17.20;55.00;;;;;;5069382;28;20525;-46
2023/04/26 09:05:54;;;;;;;3.27;1.70;;;17.20;55.00;;;;;;5069063;28;20605;-46
2023/04/26 09:08:27;;;;;;;3.87;1.80;;;17.30;55.00;;;;;;5050011;28;20284;-46
2023/04/26 09:10:58;;;;;;;3.13;1.63;;;17.30;55.00;;;;;;5056312;28;20227;-46
2023/04/26 09:13:29;;;;;;;5.40;2.17;;;17.30;55.00;;;;;;5064118;28;20646;-46
2023/04/26 09:16:00;;;;;;;3.57;1.40;;;17.30;55.00;;;;;;5076318;28;20207;-46
2023/04/26 09:18:32;;;;;;;4.90;1.87;;;17.30;55.00;;;;;;5074896;28;20197;-46
2023/04/26 09:21:07;;;;;;;3.17;1.50;;;17.30;55.00;;;;;;5076756;28;20209;-46
2023/04/26 09:24:05;;;;;;;3.83;1.90;;;17.30;55.00;;;;;;5057509;28;20192;-46
2023/04/26 09:26:35;;;;;;;3.67;1.60;;;17.30;55.00;;;;;;5073482;28;20202;-46
2023/04/26 09:29:17;;;;;;;2.43;1.53;;;17.30;55.00;;;;;;5067932;28;20283;-46
2023/04/26 09:31:49;;;;;;;2.00;1.50;;;17.30;55.00;;;;;;5071440;28;20210;-46
2023/04/26 09:34:21;;;;;;;3.40;1.80;;;17.30;55.00;;;;;;5042734;28;20546;-46
2023/04/26 09:36:55;;;;;;;2.93;1.80;;;17.30;54.90;;;;;;5069771;28;20194;-46
2023/04/26 09:39:36;;;;;;;2.03;1.50;;;17.30;54.90;;;;;;5073765;28;20736;-46
2023/04/26 09:42:18;;;;;;;2.57;1.20;;;17.30;54.90;;;;;;5070468;28;20642;-46
2023/04/26 09:44:55;;;;;;;2.47;1.27;;;17.30;55.00;;;;;;5033942;28;20189;-46
2023/04/26 09:47:24;;;;;;;3.13;1.30;;;17.30;55.00;;;;;;5066409;28;20222;-46
2023/04/26 09:49:56;;;;;;;1.80;1.47;;;17.40;55.00;;;;;;5055220;28;20220;-46
2023/04/26 09:52:28;;;;;;;2.60;1.40;;;17.30;55.00;;;;;;5061015;28;20635;-46
2023/04/26 09:54:56;;;;;;;3.00;1.40;;;17.30;54.90;;;;;;5068655;28;20205;-46
2023/04/26 09:57:24;;;;;;;5.03;1.50;;;17.40;55.00;;;;;;5069419;28;20204;-46
2023/04/26 09:59:55;;;;;;;1.90;1.23;;;17.40;54.90;;;;;;5069034;28;20197;-46
2023/04/26 10:02:28;;;;;;;2.77;1.30;;;17.40;54.90;;;;;;5048945;28;20189;-46
2023/04/26 10:05:00;;;;;;;1.90;1.13;;;17.40;54.80;;;;;;5068129;28;20212;-46
2023/04/26 10:07:37;;;;;;;3.50;1.40;;;17.40;54.90;;;;;;5063797;28;20302;-46
2023/04/26 10:10:12;;;;;;;1.87;1.13;;;17.40;54.90;;;;;;5050971;28;20650;-46
2023/04/26 10:12:45;;;;;;;2.23;1.20;;;17.40;54.80;;;;;;5059890;28;20204;-47
2023/04/26 10:15:17;;;;;;;1.97;1.43;;;17.40;54.90;;;;;;5071901;28;20204;-46
2023/04/26 10:17:50;;;;;;;1.83;1.23;;;17.40;54.80;;;;;;5073339;28;20218;-47
2023/04/26 10:20:37;;;;;;;3.77;1.73;;;17.40;54.80;;;;;;5066440;28;20213;-46
2023/04/26 10:23:20;;;;;;;2.20;1.50;;;17.50;54.90;;;;;;5046081;28;20646;-46
2023/04/26 10:25:50;;;;;;;1.60;1.00;;;17.40;54.90;;;;;;5036650;28;20628;-46
2023/04/26 10:28:48;;;;;;;2.80;1.43;;;17.40;54.80;;;;;;5068368;28;20209;-46
2023/04/26 10:31:48;;;;;;;1.83;1.00;;;17.50;54.90;;;;;;5061593;28;20307;-46
2023/04/26 10:34:20;;;;;;;2.70;1.60;;;17.50;54.90;;;;;;5070175;28;20201;-46
2023/04/26 10:37:17;;;;;;;2.20;1.30;;;17.50;54.80;;;;;;5056916;28;20197;-47
2023/04/26 10:39:48;;;;;;;1.53;1.10;;;17.50;54.80;;;;;;5066127;28;20243;-46
2023/04/26 10:42:29;;;;;;;2.13;1.23;;;17.50;54.90;;;;;;5053217;28;20198;-46
2023/04/26 10:44:58;;;;;;;2.60;1.13;;;17.50;54.80;;;;;;5054091;28;20224;-46
2023/04/26 10:47:36;;;;;;;1.73;1.23;;;17.50;54.70;;;;;;5056124;28;20218;-46
2023/04/26 10:50:14;;;;;;;2.77;1.30;;;17.60;54.70;;;;;;5077370;28;20204;-46
2023/04/26 10:53:04;;;;;;;2.07;1.00;;;17.60;54.70;;;;;;5071158;28;20194;-46
2023/04/26 10:55:42;;;;;;;3.30;1.30;;;17.60;54.80;;;;;;5065568;28;20225;-46
2023/04/26 10:58:35;;;;;;;2.57;1.10;;;17.60;54.60;;;;;;5047059;28;20189;-46
2023/04/26 11:01:16;;;;;;;2.97;1.20;;;17.60;54.70;;;;;;5081006;28;20208;-46
2023/04/26 11:04:15;;;;;;;1.30;1.10;;;17.60;54.70;;;;;;5090076;28;20217;-46
2023/04/26 11:06:56;;;;;;;1.80;1.00;;;17.60;54.70;;;;;;5075961;28;20193;-46
2023/04/26 11:09:59;;;;;;;1.43;1.30;;;17.60;54.70;;;;;;5060967;28;20681;-46
2023/04/26 11:12:28;;;;;;;2.70;1.40;;;17.60;54.70;;;;;;5076864;28;20185;-46
2023/04/26 11:14:59;;;;;;;2.00;1.17;;;17.70;54.80;;;;;;5071631;28;20224;-46
2023/04/26 11:17:47;;;;;;;1.83;1.50;;;17.60;54.70;;;;;;5061104;28;21008;-46
2023/04/26 11:20:19;;;;;;;2.77;1.03;;;17.70;54.80;;;;;;5068822;28;20213;-46
2023/04/26 11:22:52;;;;;;;2.00;1.40;;;17.70;54.80;;;;;;5071900;28;20197;-46
2023/04/26 11:25:23;;;;;;;2.20;1.10;;;17.70;54.70;;;;;;5067605;28;20197;-46
2023/04/26 11:28:06;;;;;;;2.43;1.40;;;17.70;54.80;;;;;;5075545;28;20224;-46
2023/04/26 11:30:38;;;;;;;2.40;1.00;;;17.70;54.80;;;;;;5052020;28;20209;-46
2023/04/26 11:33:19;;;;;;;1.80;1.20;;;17.70;54.80;;;;;;5049439;28;20209;-46
2023/04/26 11:36:10;;;;;;;2.27;0.97;;;17.70;54.80;;;;;;5054266;28;20203;-46
2023/04/26 11:38:40;;;;;;;2.30;1.17;;;17.70;54.90;;;;;;5066876;28;20233;-46
2023/04/26 11:41:10;;;;;;;1.47;0.90;;;17.80;54.90;;;;;;5073412;28;20197;-46
2023/04/26 11:43:39;;;;;;;1.73;1.20;;;17.70;54.80;;;;;;5069666;28;20225;-46
2023/04/26 11:46:19;;;;;;;1.57;1.17;;;17.80;54.90;;;;;;5068615;28;20264;-46
2023/04/26 11:48:50;;;;;;;1.33;0.87;;;17.70;54.80;;;;;;5047143;28;20217;-46
2023/04/26 11:51:41;;;;;;;1.80;0.87;;;17.80;54.90;;;;;;5057064;28;20194;-46
2023/04/26 11:54:25;;;;;;;1.00;0.83;;;17.80;54.80;;;;;;5054638;28;20198;-46
2023/04/26 11:56:52;;;;;;;3.17;1.40;;;17.80;54.80;;;;;;5069287;28;20642;-46
2023/04/26 11:59:29;;;;;;;1.90;1.10;;;17.80;54.90;;;;;;5063969;28;20682;-46
2023/04/26 12:02:09;;;;;;;1.60;1.00;;;17.80;54.80;;;;;;5066769;28;20210;-46
2023/04/26 12:04:57;;;;;;;1.40;0.90;;;17.80;54.90;;;;;;5054341;28;20536;-46
2023/04/26 12:07:36;;;;;;;1.67;1.20;;;17.80;54.80;;;;;;5068206;28;20206;-46
2023/04/26 12:10:27;;;;;;;1.10;1.00;;;17.80;54.70;;;;;;5074835;28;20191;-47
2023/04/26 12:12:59;;;;;;;0.90;0.90;;;17.90;55.50;;;;;;5059862;28;20612;-47
2023/04/26 12:15:35;;;;;;;1.70;1.03;;;17.80;54.80;;;;;;5073802;28;20197;-46
2023/04/26 12:18:09;;;;;;;1.10;0.97;;;17.90;55.00;;;;;;5078593;28;20209;-46
2023/04/26 12:20:40;;;;;;;1.60;0.93;;;17.90;54.80;;;;;;5035269;28;20655;-47
2023/04/26 12:23:25;;;;;;;1.37;1.00;;;17.90;54.90;;;;;;5053527;28;20285;-47
2023/04/26 12:26:00;;;;;;;2.33;1.40;;;17.90;54.80;;;;;;5075648;28;20197;-47
2023/04/26 12:28:29;;;;;;;1.77;1.20;;;17.90;54.70;;;;;;5056293;28;20214;-47
2023/04/26 12:31:02;;;;;;;1.43;1.00;;;17.90;54.80;;;;;;5069342;28;20182;-47
2023/04/26 12:33:32;;;;;;;1.83;0.90;;;17.90;54.80;;;;;;5053026;28;20201;-47
2023/04/26 12:36:11;;;;;;;1.33;1.00;;;17.90;54.80;;;;;;5052812;28;20206;-47
2023/04/26 12:38:43;;;;;;;0.90;0.80;;;17.90;54.70;;;;;;5039686;28;20231;-47
2023/04/26 12:41:20;;;;;;;1.00;0.90;;;17.90;54.70;;;;;;5053289;28;21066;-47
2023/04/26 12:43:50;;;;;;;2.07;1.20;;;17.90;54.70;;;;;;5054191;28;20311;-46
2023/04/26 12:46:21;;;;;;;1.23;1.03;;;17.90;54.70;;;;;;5052132;28;20207;-47
2023/04/26 12:48:50;;;;;;;1.83;0.97;;;17.90;54.70;;;;;;5050877;28;20214;-47
2023/04/26 12:51:16;;;;;;;1.33;0.90;;;18.00;54.70;;;;;;5049552;28;20187;-47
2023/04/26 12:53:48;;;;;;;1.13;0.80;;;18.00;54.80;;;;;;5052887;28;20212;-47
2023/04/26 12:56:18;;;;;;;1.10;0.90;;;18.00;54.70;;;;;;5048128;28;20214;-46
2023/04/26 12:58:48;;;;;;;1.17;1.00;;;18.00;54.60;;;;;;5016778;28;20198;-46
2023/04/26 13:01:19;;;;;;;1.43;1.10;;;18.00;54.60;;;;;;5030292;28;20201;-46
2023/04/26 13:03:52;;;;;;;1.30;0.73;;;18.00;54.70;;;;;;5050423;28;20198;-46
2023/04/26 13:06:45;;;;;;;1.07;0.97;;;18.00;54.70;;;;;;5049902;28;20256;-47
2023/04/26 13:09:14;;;;;;;1.47;0.93;;;18.10;54.70;;;;;;5048408;28;20249;-47
2023/04/26 13:11:45;;;;;;;1.60;1.00;;;18.10;54.70;;;;;;5050803;28;20214;-46
2023/04/26 13:14:14;;;;;;;2.07;1.07;;;18.10;54.70;;;;;;5056325;28;20206;-46